sensor_id;sensor_type;location;lat;lon;timestamp;P1;durP1;ratioP1;P2;durP2;ratioP2
40339;SDS011;26044;50.864;20.658;2023-05-10T00:00:39;22.08;;;7.70;;
40339;SDS011;26044;50.864;20.658;2023-05-10T00:03:06;22.30;;;7.78;;
40339;SDS011;26044;50.864;20.658;2023-05-10T00:05:34;25.83;;;8.30;;
40339;SDS011;26044;50.864;20.658;2023-05-10T00:08:01;23.42;;;8.05;;
40339;SDS011;26044;50.864;20.658;2023-05-10T00:10:28;25.95;;;8.10;;
40339;SDS011;26044;50.864;20.658;2023-05-10T00:12:55;21.70;;;7.68;;
40339;SDS011;26044;50.864;20.658;2023-05-10T00:15:22;23.88;;;7.45;;
40339;SDS011;26044;50.864;20.658;2023-05-10T00:17:50;23.77;;;7.43;;
40339;SDS011;26044;50.864;20.658;2023-05-10T00:20:18;21.70;;;7.25;;
40339;SDS011;26044;50.864;20.658;2023-05-10T00:22:45;22.88;;;8.10;;
40339;SDS011;26044;50.864;20.658;2023-05-10T00:25:12;22.25;;;7.43;;
40339;SDS011;26044;50.864;20.658;2023-05-10T00:27:39;22.65;;;7.10;;
40339;SDS011;26044;50.864;20.658;2023-05-10T00:30:07;18.25;;;6.65;;
40339;SDS011;26044;50.864;20.658;2023-05-10T00:32:34;20.67;;;7.05;;
40339;SDS011;26044;50.864;20.658;2023-05-10T00:35:01;21.45;;;6.78;;
40339;SDS011;26044;50.864;20.658;2023-05-10T00:37:28;19.95;;;7.22;;
40339;SDS011;26044;50.864;20.658;2023-05-10T00:39:55;16.25;;;6.30;;
40339;SDS011;26044;50.864;20.658;2023-05-10T00:42:23;21.52;;;7.72;;
40339;SDS011;26044;50.864;20.658;2023-05-10T00:44:50;21.20;;;8.00;;
40339;SDS011;26044;50.864;20.658;2023-05-10T00:47:17;18.40;;;7.03;;
40339;SDS011;26044;50.864;20.658;2023-05-10T00:49:44;20.77;;;6.38;;
40339;SDS011;26044;50.864;20.658;2023-05-10T00:52:12;18.40;;;6.78;;
40339;SDS011;26044;50.864;20.658;2023-05-10T00:54:39;17.63;;;6.30;;
40339;SDS011;26044;50.864;20.658;2023-05-10T00:57:06;19.77;;;6.18;;
40339;SDS011;26044;50.864;20.658;2023-05-10T00:59:34;17.60;;;5.90;;
40339;SDS011;26044;50.864;20.658;2023-05-10T01:02:01;16.38;;;5.60;;
40339;SDS011;26044;50.864;20.658;2023-05-10T01:04:29;19.15;;;5.88;;
40339;SDS011;26044;50.864;20.658;2023-05-10T01:06:57;19.73;;;6.60;;
40339;SDS011;26044;50.864;20.658;2023-05-10T01:09:25;21.73;;;6.13;;
40339;SDS011;26044;50.864;20.658;2023-05-10T01:11:52;18.17;;;6.47;;
40339;SDS011;26044;50.864;20.658;2023-05-10T01:14:21;17.55;;;5.88;;
40339;SDS011;26044;50.864;20.658;2023-05-10T01:16:49;20.38;;;6.30;;
40339;SDS011;26044;50.864;20.658;2023-05-10T01:19:22;17.83;;;5.80;;
40339;SDS011;26044;50.864;20.658;2023-05-10T01:21:53;18.35;;;6.22;;
40339;SDS011;26044;50.864;20.658;2023-05-10T01:32:53;17.33;;;6.00;;
40339;SDS011;26044;50.864;20.658;2023-05-10T01:35:39;19.08;;;6.53;;
40339;SDS011;26044;50.864;20.658;2023-05-10T01:41:07;19.50;;;5.72;;
40339;SDS011;26044;50.864;20.658;2023-05-10T01:43:59;19.27;;;6.18;;
40339;SDS011;26044;50.864;20.658;2023-05-10T01:46:29;21.00;;;6.03;;
40339;SDS011;26044;50.864;20.658;2023-05-10T01:48:59;16.67;;;6.03;;
40339;SDS011;26044;50.864;20.658;2023-05-10T01:51:29;18.20;;;5.57;;
40339;SDS011;26044;50.864;20.658;2023-05-10T01:54:00;18.92;;;6.50;;
40339;SDS011;26044;50.864;20.658;2023-05-10T01:56:29;17.13;;;5.63;;
40339;SDS011;26044;50.864;20.658;2023-05-10T01:58:57;16.90;;;5.82;;
40339;SDS011;26044;50.864;20.658;2023-05-10T02:01:25;20.30;;;7.03;;
40339;SDS011;26044;50.864;20.658;2023-05-10T02:03:54;16.70;;;5.63;;
40339;SDS011;26044;50.864;20.658;2023-05-10T02:06:22;17.70;;;5.85;;
40339;SDS011;26044;50.864;20.658;2023-05-10T02:08:50;16.00;;;5.65;;
40339;SDS011;26044;50.864;20.658;2023-05-10T02:11:18;23.42;;;5.82;;
40339;SDS011;26044;50.864;20.658;2023-05-10T02:13:47;16.42;;;5.95;;
40339;SDS011;26044;50.864;20.658;2023-05-10T02:16:15;18.20;;;5.75;;
40339;SDS011;26044;50.864;20.658;2023-05-10T02:18:43;19.02;;;5.60;;
40339;SDS011;26044;50.864;20.658;2023-05-10T02:21:10;18.15;;;5.82;;
40339;SDS011;26044;50.864;20.658;2023-05-10T02:23:39;15.98;;;5.70;;
40339;SDS011;26044;50.864;20.658;2023-05-10T02:26:07;20.75;;;6.40;;
40339;SDS011;26044;50.864;20.658;2023-05-10T02:28:34;19.67;;;5.70;;
40339;SDS011;26044;50.864;20.658;2023-05-10T02:31:04;15.55;;;5.82;;
40339;SDS011;26044;50.864;20.658;2023-05-10T02:33:32;18.17;;;6.47;;
40339;SDS011;26044;50.864;20.658;2023-05-10T02:35:59;19.60;;;6.50;;
40339;SDS011;26044;50.864;20.658;2023-05-10T02:38:27;19.52;;;5.88;;
40339;SDS011;26044;50.864;20.658;2023-05-10T02:40:55;18.95;;;5.80;;
40339;SDS011;26044;50.864;20.658;2023-05-10T02:43:22;16.63;;;5.40;;
40339;SDS011;26044;50.864;20.658;2023-05-10T02:45:50;17.60;;;6.03;;
40339;SDS011;26044;50.864;20.658;2023-05-10T02:48:17;17.25;;;5.97;;
40339;SDS011;26044;50.864;20.658;2023-05-10T02:50:44;17.80;;;6.18;;
40339;SDS011;26044;50.864;20.658;2023-05-10T02:53:16;15.98;;;5.80;;
40339;SDS011;26044;50.864;20.658;2023-05-10T02:55:46;18.17;;;5.32;;
40339;SDS011;26044;50.864;20.658;2023-05-10T02:58:14;16.25;;;5.53;;
40339;SDS011;26044;50.864;20.658;2023-05-10T03:00:41;16.42;;;5.70;;
40339;SDS011;26044;50.864;20.658;2023-05-10T03:03:08;17.20;;;5.63;;
40339;SDS011;26044;50.864;20.658;2023-05-10T03:05:35;29.60;;;7.93;;
40339;SDS011;26044;50.864;20.658;2023-05-10T03:08:02;16.17;;;5.28;;
40339;SDS011;26044;50.864;20.658;2023-05-10T03:10:30;19.08;;;6.50;;
40339;SDS011;26044;50.864;20.658;2023-05-10T03:13:10;17.83;;;5.45;;
40339;SDS011;26044;50.864;20.658;2023-05-10T03:15:59;19.13;;;5.97;;
40339;SDS011;26044;50.864;20.658;2023-05-10T03:18:31;18.40;;;5.95;;
40339;SDS011;26044;50.864;20.658;2023-05-10T03:21:04;19.48;;;6.50;;
40339;SDS011;26044;50.864;20.658;2023-05-10T03:26:02;22.95;;;7.13;;
40339;SDS011;26044;50.864;20.658;2023-05-10T03:28:29;19.83;;;6.47;;
40339;SDS011;26044;50.864;20.658;2023-05-10T03:30:57;19.05;;;6.63;;
40339;SDS011;26044;50.864;20.658;2023-05-10T03:33:25;17.35;;;5.75;;
40339;SDS011;26044;50.864;20.658;2023-05-10T03:35:53;19.45;;;6.35;;
40339;SDS011;26044;50.864;20.658;2023-05-10T03:38:20;15.98;;;5.40;;
40339;SDS011;26044;50.864;20.658;2023-05-10T03:40:47;16.35;;;5.72;;
40339;SDS011;26044;50.864;20.658;2023-05-10T03:43:14;19.20;;;5.85;;
40339;SDS011;26044;50.864;20.658;2023-05-10T03:45:41;17.33;;;6.20;;
40339;SDS011;26044;50.864;20.658;2023-05-10T03:48:08;19.35;;;5.78;;
40339;SDS011;26044;50.864;20.658;2023-05-10T03:50:36;16.50;;;5.97;;
40339;SDS011;26044;50.864;20.658;2023-05-10T03:53:03;17.45;;;6.22;;
40339;SDS011;26044;50.864;20.658;2023-05-10T03:55:30;15.77;;;5.50;;
40339;SDS011;26044;50.864;20.658;2023-05-10T03:58:00;18.77;;;6.20;;
40339;SDS011;26044;50.864;20.658;2023-05-10T04:00:27;18.85;;;5.78;;
40339;SDS011;26044;50.864;20.658;2023-05-10T04:02:54;20.90;;;6.68;;
40339;SDS011;26044;50.864;20.658;2023-05-10T04:05:22;20.88;;;5.47;;
40339;SDS011;26044;50.864;20.658;2023-05-10T04:07:49;20.25;;;5.32;;
40339;SDS011;26044;50.864;20.658;2023-05-10T04:10:23;16.45;;;5.75;;
40339;SDS011;26044;50.864;20.658;2023-05-10T04:12:50;17.67;;;5.50;;
40339;SDS011;26044;50.864;20.658;2023-05-10T04:15:18;18.02;;;6.03;;
40339;SDS011;26044;50.864;20.658;2023-05-10T04:17:45;19.95;;;5.38;;
40339;SDS011;26044;50.864;20.658;2023-05-10T04:20:12;19.27;;;6.35;;
40339;SDS011;26044;50.864;20.658;2023-05-10T04:22:40;18.55;;;5.82;;
40339;SDS011;26044;50.864;20.658;2023-05-10T04:25:07;16.08;;;5.60;;
40339;SDS011;26044;50.864;20.658;2023-05-10T04:27:35;17.67;;;5.45;;
40339;SDS011;26044;50.864;20.658;2023-05-10T04:30:02;16.27;;;5.32;;
40339;SDS011;26044;50.864;20.658;2023-05-10T04:32:29;13.52;;;4.78;;
40339;SDS011;26044;50.864;20.658;2023-05-10T04:34:57;20.33;;;6.07;;
40339;SDS011;26044;50.864;20.658;2023-05-10T04:37:24;19.20;;;5.80;;
40339;SDS011;26044;50.864;20.658;2023-05-10T04:39:51;14.40;;;5.32;;
40339;SDS011;26044;50.864;20.658;2023-05-10T04:42:18;17.70;;;5.30;;
40339;SDS011;26044;50.864;20.658;2023-05-10T04:44:46;18.35;;;5.03;;
40339;SDS011;26044;50.864;20.658;2023-05-10T04:47:13;19.30;;;5.88;;
40339;SDS011;26044;50.864;20.658;2023-05-10T04:49:40;16.63;;;5.25;;
40339;SDS011;26044;50.864;20.658;2023-05-10T04:52:07;17.42;;;5.70;;
40339;SDS011;26044;50.864;20.658;2023-05-10T04:54:34;18.40;;;5.15;;
40339;SDS011;26044;50.864;20.658;2023-05-10T04:57:01;16.15;;;5.30;;
40339;SDS011;26044;50.864;20.658;2023-05-10T04:59:28;15.93;;;5.25;;
40339;SDS011;26044;50.864;20.658;2023-05-10T05:01:56;19.08;;;5.20;;
40339;SDS011;26044;50.864;20.658;2023-05-10T05:04:23;15.07;;;5.28;;
40339;SDS011;26044;50.864;20.658;2023-05-10T05:06:50;16.02;;;5.00;;
40339;SDS011;26044;50.864;20.658;2023-05-10T05:09:19;15.73;;;5.32;;
40339;SDS011;26044;50.864;20.658;2023-05-10T05:11:46;17.73;;;5.50;;
40339;SDS011;26044;50.864;20.658;2023-05-10T05:14:13;17.00;;;5.50;;
40339;SDS011;26044;50.864;20.658;2023-05-10T05:16:44;15.73;;;5.10;;
40339;SDS011;26044;50.864;20.658;2023-05-10T05:21:42;15.30;;;4.82;;
40339;SDS011;26044;50.864;20.658;2023-05-10T05:24:09;13.48;;;4.25;;
40339;SDS011;26044;50.864;20.658;2023-05-10T05:26:38;15.60;;;4.78;;
40339;SDS011;26044;50.864;20.658;2023-05-10T05:29:05;18.90;;;5.25;;
40339;SDS011;26044;50.864;20.658;2023-05-10T05:31:32;14.63;;;4.88;;
40339;SDS011;26044;50.864;20.658;2023-05-10T05:34:00;14.80;;;4.43;;
40339;SDS011;26044;50.864;20.658;2023-05-10T05:36:27;17.23;;;4.80;;
40339;SDS011;26044;50.864;20.658;2023-05-10T05:38:54;13.43;;;4.88;;
40339;SDS011;26044;50.864;20.658;2023-05-10T05:41:22;11.35;;;4.45;;
40339;SDS011;26044;50.864;20.658;2023-05-10T05:44:00;16.17;;;4.55;;
40339;SDS011;26044;50.864;20.658;2023-05-10T05:46:30;16.63;;;4.80;;
40339;SDS011;26044;50.864;20.658;2023-05-10T05:48:57;14.80;;;4.65;;
40339;SDS011;26044;50.864;20.658;2023-05-10T05:51:24;19.48;;;5.82;;
40339;SDS011;26044;50.864;20.658;2023-05-10T05:53:52;15.32;;;4.55;;
40339;SDS011;26044;50.864;20.658;2023-05-10T05:56:19;15.43;;;4.85;;
40339;SDS011;26044;50.864;20.658;2023-05-10T05:58:50;13.73;;;4.78;;
40339;SDS011;26044;50.864;20.658;2023-05-10T06:01:18;10.73;;;4.93;;
40339;SDS011;26044;50.864;20.658;2023-05-10T06:03:45;15.85;;;5.18;;
40339;SDS011;26044;50.864;20.658;2023-05-10T06:06:16;14.75;;;5.05;;
40339;SDS011;26044;50.864;20.658;2023-05-10T06:08:47;19.90;;;5.30;;
40339;SDS011;26044;50.864;20.658;2023-05-10T06:13:41;13.77;;;4.30;;
40339;SDS011;26044;50.864;20.658;2023-05-10T06:16:09;11.85;;;4.05;;
40339;SDS011;26044;50.864;20.658;2023-05-10T06:18:36;16.20;;;4.68;;
40339;SDS011;26044;50.864;20.658;2023-05-10T06:21:03;14.73;;;3.90;;
40339;SDS011;26044;50.864;20.658;2023-05-10T06:23:30;10.25;;;3.92;;
40339;SDS011;26044;50.864;20.658;2023-05-10T06:25:58;15.25;;;4.38;;
40339;SDS011;26044;50.864;20.658;2023-05-10T06:28:25;10.10;;;3.50;;
40339;SDS011;26044;50.864;20.658;2023-05-10T06:30:52;12.75;;;4.07;;
40339;SDS011;26044;50.864;20.658;2023-05-10T06:33:20;12.70;;;3.60;;
40339;SDS011;26044;50.864;20.658;2023-05-10T06:35:47;17.48;;;4.55;;
40339;SDS011;26044;50.864;20.658;2023-05-10T06:38:14;14.27;;;3.90;;
40339;SDS011;26044;50.864;20.658;2023-05-10T06:40:41;15.07;;;3.90;;
40339;SDS011;26044;50.864;20.658;2023-05-10T06:43:09;8.52;;;3.50;;
40339;SDS011;26044;50.864;20.658;2023-05-10T06:45:36;11.43;;;3.92;;
40339;SDS011;26044;50.864;20.658;2023-05-10T06:48:03;14.05;;;3.63;;
40339;SDS011;26044;50.864;20.658;2023-05-10T06:50:31;7.63;;;2.67;;
40339;SDS011;26044;50.864;20.658;2023-05-10T06:52:58;8.80;;;3.42;;
40339;SDS011;26044;50.864;20.658;2023-05-10T06:55:25;8.77;;;2.83;;
40339;SDS011;26044;50.864;20.658;2023-05-10T06:57:52;11.43;;;3.42;;
40339;SDS011;26044;50.864;20.658;2023-05-10T07:00:20;10.02;;;2.95;;
40339;SDS011;26044;50.864;20.658;2023-05-10T07:02:47;9.57;;;3.70;;
40339;SDS011;26044;50.864;20.658;2023-05-10T07:05:14;11.82;;;3.50;;
40339;SDS011;26044;50.864;20.658;2023-05-10T07:07:42;9.88;;;3.20;;
40339;SDS011;26044;50.864;20.658;2023-05-10T07:10:09;10.57;;;3.20;;
40339;SDS011;26044;50.864;20.658;2023-05-10T07:12:36;11.82;;;3.05;;
40339;SDS011;26044;50.864;20.658;2023-05-10T07:15:04;6.75;;;2.63;;
40339;SDS011;26044;50.864;20.658;2023-05-10T07:17:32;6.30;;;3.03;;
40339;SDS011;26044;50.864;20.658;2023-05-10T07:20:02;9.73;;;3.42;;
40339;SDS011;26044;50.864;20.658;2023-05-10T07:22:30;10.63;;;3.42;;
40339;SDS011;26044;50.864;20.658;2023-05-10T07:24:57;8.23;;;3.08;;
40339;SDS011;26044;50.864;20.658;2023-05-10T07:27:24;7.53;;;3.10;;
40339;SDS011;26044;50.864;20.658;2023-05-10T07:29:52;7.15;;;2.55;;
40339;SDS011;26044;50.864;20.658;2023-05-10T07:32:19;8.07;;;2.95;;
40339;SDS011;26044;50.864;20.658;2023-05-10T07:34:46;9.57;;;2.90;;
40339;SDS011;26044;50.864;20.658;2023-05-10T07:37:13;8.18;;;2.70;;
40339;SDS011;26044;50.864;20.658;2023-05-10T07:39:41;6.25;;;2.95;;
40339;SDS011;26044;50.864;20.658;2023-05-10T07:42:08;9.98;;;2.92;;
40339;SDS011;26044;50.864;20.658;2023-05-10T07:44:35;6.38;;;2.75;;
40339;SDS011;26044;50.864;20.658;2023-05-10T07:47:03;8.88;;;3.15;;
40339;SDS011;26044;50.864;20.658;2023-05-10T07:49:30;9.57;;;3.42;;
40339;SDS011;26044;50.864;20.658;2023-05-10T07:51:57;7.07;;;2.60;;
40339;SDS011;26044;50.864;20.658;2023-05-10T07:54:26;8.10;;;3.50;;
40339;SDS011;26044;50.864;20.658;2023-05-10T07:56:53;8.65;;;2.95;;
40339;SDS011;26044;50.864;20.658;2023-05-10T07:59:20;8.50;;;2.90;;
40339;SDS011;26044;50.864;20.658;2023-05-10T08:01:47;8.38;;;2.80;;
40339;SDS011;26044;50.864;20.658;2023-05-10T08:04:17;8.15;;;3.35;;
40339;SDS011;26044;50.864;20.658;2023-05-10T08:06:51;8.98;;;3.10;;
40339;SDS011;26044;50.864;20.658;2023-05-10T08:09:24;8.63;;;2.97;;
40339;SDS011;26044;50.864;20.658;2023-05-10T08:11:56;9.10;;;3.53;;
40339;SDS011;26044;50.864;20.658;2023-05-10T08:14:27;10.98;;;3.20;;
40339;SDS011;26044;50.864;20.658;2023-05-10T08:16:55;7.30;;;2.97;;
40339;SDS011;26044;50.864;20.658;2023-05-10T08:19:22;3.88;;;2.33;;
40339;SDS011;26044;50.864;20.658;2023-05-10T08:21:55;9.15;;;2.80;;
40339;SDS011;26044;50.864;20.658;2023-05-10T08:24:23;11.82;;;3.30;;
40339;SDS011;26044;50.864;20.658;2023-05-10T08:26:52;4.70;;;2.53;;
40339;SDS011;26044;50.864;20.658;2023-05-10T08:29:20;8.32;;;2.97;;
40339;SDS011;26044;50.864;20.658;2023-05-10T08:31:53;9.02;;;3.45;;
40339;SDS011;26044;50.864;20.658;2023-05-10T08:34:21;9.68;;;3.30;;
40339;SDS011;26044;50.864;20.658;2023-05-10T08:36:48;8.48;;;3.13;;
40339;SDS011;26044;50.864;20.658;2023-05-10T08:39:16;11.90;;;3.00;;
40339;SDS011;26044;50.864;20.658;2023-05-10T08:41:55;9.38;;;2.95;;
40339;SDS011;26044;50.864;20.658;2023-05-10T08:44:27;8.38;;;3.00;;
40339;SDS011;26044;50.864;20.658;2023-05-10T08:46:56;12.80;;;3.35;;
40339;SDS011;26044;50.864;20.658;2023-05-10T08:49:24;8.38;;;2.97;;
40339;SDS011;26044;50.864;20.658;2023-05-10T08:51:54;8.15;;;3.22;;
40339;SDS011;26044;50.864;20.658;2023-05-10T08:54:23;8.07;;;2.60;;
40339;SDS011;26044;50.864;20.658;2023-05-10T08:56:51;8.60;;;3.00;;
40339;SDS011;26044;50.864;20.658;2023-05-10T08:59:19;6.25;;;3.00;;
40339;SDS011;26044;50.864;20.658;2023-05-10T09:01:47;9.30;;;3.50;;
40339;SDS011;26044;50.864;20.658;2023-05-10T09:04:15;9.57;;;3.10;;
40339;SDS011;26044;50.864;20.658;2023-05-10T09:06:42;8.13;;;2.97;;
40339;SDS011;26044;50.864;20.658;2023-05-10T09:09:10;11.50;;;3.25;;
40339;SDS011;26044;50.864;20.658;2023-05-10T09:11:39;9.23;;;3.45;;
40339;SDS011;26044;50.864;20.658;2023-05-10T09:14:06;10.60;;;3.08;;
40339;SDS011;26044;50.864;20.658;2023-05-10T09:16:34;8.85;;;2.90;;
40339;SDS011;26044;50.864;20.658;2023-05-10T09:19:02;10.43;;;3.03;;
40339;SDS011;26044;50.864;20.658;2023-05-10T09:21:30;8.18;;;3.45;;
40339;SDS011;26044;50.864;20.658;2023-05-10T09:24:02;7.45;;;3.08;;
40339;SDS011;26044;50.864;20.658;2023-05-10T09:26:30;6.00;;;3.22;;
40339;SDS011;26044;50.864;20.658;2023-05-10T09:28:58;8.77;;;3.33;;
40339;SDS011;26044;50.864;20.658;2023-05-10T09:31:42;7.53;;;3.30;;
40339;SDS011;26044;50.864;20.658;2023-05-10T09:34:10;10.43;;;4.00;;
40339;SDS011;26044;50.864;20.658;2023-05-10T09:36:49;6.15;;;2.78;;
40339;SDS011;26044;50.864;20.658;2023-05-10T09:39:16;9.95;;;3.40;;
40339;SDS011;26044;50.864;20.658;2023-05-10T09:41:44;11.13;;;3.78;;
40339;SDS011;26044;50.864;20.658;2023-05-10T09:44:11;12.80;;;3.30;;
40339;SDS011;26044;50.864;20.658;2023-05-10T09:46:38;7.85;;;3.03;;
40339;SDS011;26044;50.864;20.658;2023-05-10T09:49:05;11.90;;;3.28;;
40339;SDS011;26044;50.864;20.658;2023-05-10T09:51:33;12.82;;;3.35;;
40339;SDS011;26044;50.864;20.658;2023-05-10T09:54:15;9.25;;;2.90;;
40339;SDS011;26044;50.864;20.658;2023-05-10T09:56:42;7.63;;;2.67;;
40339;SDS011;26044;50.864;20.658;2023-05-10T09:59:10;9.25;;;3.15;;
40339;SDS011;26044;50.864;20.658;2023-05-10T10:01:38;11.05;;;3.05;;
40339;SDS011;26044;50.864;20.658;2023-05-10T10:04:07;7.55;;;3.10;;
40339;SDS011;26044;50.864;20.658;2023-05-10T10:06:35;5.55;;;2.55;;
40339;SDS011;26044;50.864;20.658;2023-05-10T10:09:02;8.88;;;2.90;;
40339;SDS011;26044;50.864;20.658;2023-05-10T10:11:30;5.53;;;3.05;;
40339;SDS011;26044;50.864;20.658;2023-05-10T10:13:57;5.95;;;2.85;;
40339;SDS011;26044;50.864;20.658;2023-05-10T10:16:25;5.10;;;2.67;;
40339;SDS011;26044;50.864;20.658;2023-05-10T10:18:53;7.38;;;2.95;;
40339;SDS011;26044;50.864;20.658;2023-05-10T10:21:21;9.07;;;3.17;;
40339;SDS011;26044;50.864;20.658;2023-05-10T10:23:49;10.35;;;2.78;;
40339;SDS011;26044;50.864;20.658;2023-05-10T10:26:17;6.47;;;2.70;;
40339;SDS011;26044;50.864;20.658;2023-05-10T10:29:04;5.63;;;2.42;;
40339;SDS011;26044;50.864;20.658;2023-05-10T10:31:36;7.53;;;2.97;;
40339;SDS011;26044;50.864;20.658;2023-05-10T10:34:06;6.05;;;2.25;;
40339;SDS011;26044;50.864;20.658;2023-05-10T10:36:40;5.65;;;2.47;;
40339;SDS011;26044;50.864;20.658;2023-05-10T10:39:09;5.18;;;2.30;;
40339;SDS011;26044;50.864;20.658;2023-05-10T10:41:40;8.23;;;2.45;;
40339;SDS011;26044;50.864;20.658;2023-05-10T10:47:05;8.27;;;3.03;;
40339;SDS011;26044;50.864;20.658;2023-05-10T10:49:42;5.35;;;2.15;;
40339;SDS011;26044;50.864;20.658;2023-05-10T10:57:32;6.10;;;2.30;;
40339;SDS011;26044;50.864;20.658;2023-05-10T11:02:53;6.50;;;2.65;;
40339;SDS011;26044;50.864;20.658;2023-05-10T11:07:58;6.15;;;2.30;;
40339;SDS011;26044;50.864;20.658;2023-05-10T11:10:26;5.45;;;2.30;;
40339;SDS011;26044;50.864;20.658;2023-05-10T11:15:32;7.15;;;2.47;;
40339;SDS011;26044;50.864;20.658;2023-05-10T11:18:00;7.57;;;2.80;;
40339;SDS011;26044;50.864;20.658;2023-05-10T11:20:52;6.80;;;2.95;;
40339;SDS011;26044;50.864;20.658;2023-05-10T11:23:20;4.70;;;1.77;;
40339;SDS011;26044;50.864;20.658;2023-05-10T11:25:47;9.27;;;2.60;;
40339;SDS011;26044;50.864;20.658;2023-05-10T11:28:17;10.05;;;2.60;;
40339;SDS011;26044;50.864;20.658;2023-05-10T11:30:45;7.55;;;3.10;;
40339;SDS011;26044;50.864;20.658;2023-05-10T11:33:16;7.60;;;2.25;;
40339;SDS011;26044;50.864;20.658;2023-05-10T11:35:44;7.68;;;2.40;;
40339;SDS011;26044;50.864;20.658;2023-05-10T11:38:12;9.55;;;2.88;;
40339;SDS011;26044;50.864;20.658;2023-05-10T11:40:40;12.60;;;2.72;;
40339;SDS011;26044;50.864;20.658;2023-05-10T11:43:08;9.40;;;2.63;;
40339;SDS011;26044;50.864;20.658;2023-05-10T11:45:37;8.97;;;2.57;;
40339;SDS011;26044;50.864;20.658;2023-05-10T11:48:04;6.88;;;2.40;;
40339;SDS011;26044;50.864;20.658;2023-05-10T11:50:32;6.45;;;2.53;;
40339;SDS011;26044;50.864;20.658;2023-05-10T11:53:00;8.13;;;2.72;;
40339;SDS011;26044;50.864;20.658;2023-05-10T11:55:27;8.98;;;2.83;;
40339;SDS011;26044;50.864;20.658;2023-05-10T11:57:59;4.75;;;2.33;;
40339;SDS011;26044;50.864;20.658;2023-05-10T12:00:27;14.52;;;5.25;;
40339;SDS011;26044;50.864;20.658;2023-05-10T12:02:55;4.35;;;2.47;;
40339;SDS011;26044;50.864;20.658;2023-05-10T12:05:24;6.05;;;2.50;;
40339;SDS011;26044;50.864;20.658;2023-05-10T12:07:53;6.93;;;2.40;;
40339;SDS011;26044;50.864;20.658;2023-05-10T12:10:37;12.80;;;2.90;;
40339;SDS011;26044;50.864;20.658;2023-05-10T12:13:04;10.73;;;2.35;;
40339;SDS011;26044;50.864;20.658;2023-05-10T12:15:33;6.40;;;2.55;;
40339;SDS011;26044;50.864;20.658;2023-05-10T12:18:00;7.45;;;2.58;;
40339;SDS011;26044;50.864;20.658;2023-05-10T12:20:28;5.43;;;2.38;;
40339;SDS011;26044;50.864;20.658;2023-05-10T12:22:57;4.35;;;2.35;;
40339;SDS011;26044;50.864;20.658;2023-05-10T12:25:29;7.35;;;2.38;;
40339;SDS011;26044;50.864;20.658;2023-05-10T12:27:57;11.77;;;3.03;;
40339;SDS011;26044;50.864;20.658;2023-05-10T12:30:29;9.60;;;2.42;;
40339;SDS011;26044;50.864;20.658;2023-05-10T12:33:01;9.35;;;2.50;;
40339;SDS011;26044;50.864;20.658;2023-05-10T12:35:30;7.28;;;2.40;;
40339;SDS011;26044;50.864;20.658;2023-05-10T12:37:58;8.05;;;2.72;;
40339;SDS011;26044;50.864;20.658;2023-05-10T12:40:25;6.82;;;2.20;;
40339;SDS011;26044;50.864;20.658;2023-05-10T12:42:53;9.07;;;2.90;;
40339;SDS011;26044;50.864;20.658;2023-05-10T12:45:23;9.82;;;2.63;;
40339;SDS011;26044;50.864;20.658;2023-05-10T12:47:51;8.38;;;2.95;;
40339;SDS011;26044;50.864;20.658;2023-05-10T12:50:21;7.07;;;2.67;;
40339;SDS011;26044;50.864;20.658;2023-05-10T12:52:53;7.47;;;2.80;;
40339;SDS011;26044;50.864;20.658;2023-05-10T12:55:20;8.10;;;2.70;;
40339;SDS011;26044;50.864;20.658;2023-05-10T12:57:48;9.02;;;2.85;;
40339;SDS011;26044;50.864;20.658;2023-05-10T13:00:15;7.10;;;3.00;;
40339;SDS011;26044;50.864;20.658;2023-05-10T13:02:43;4.13;;;2.40;;
40339;SDS011;26044;50.864;20.658;2023-05-10T13:05:11;6.35;;;2.30;;
40339;SDS011;26044;50.864;20.658;2023-05-10T13:07:39;7.07;;;2.78;;
40339;SDS011;26044;50.864;20.658;2023-05-10T13:10:06;6.15;;;2.42;;
40339;SDS011;26044;50.864;20.658;2023-05-10T13:12:35;7.93;;;3.28;;
40339;SDS011;26044;50.864;20.658;2023-05-10T13:15:02;7.47;;;2.67;;
40339;SDS011;26044;50.864;20.658;2023-05-10T13:17:30;6.15;;;2.83;;
40339;SDS011;26044;50.864;20.658;2023-05-10T13:19:59;9.95;;;2.70;;
40339;SDS011;26044;50.864;20.658;2023-05-10T13:22:26;13.18;;;3.65;;
40339;SDS011;26044;50.864;20.658;2023-05-10T13:25:08;11.25;;;3.42;;
40339;SDS011;26044;50.864;20.658;2023-05-10T13:27:36;8.93;;;2.17;;
40339;SDS011;26044;50.864;20.658;2023-05-10T13:30:04;9.25;;;2.83;;
40339;SDS011;26044;50.864;20.658;2023-05-10T13:32:35;9.55;;;3.78;;
40339;SDS011;26044;50.864;20.658;2023-05-10T13:35:07;13.68;;;3.60;;
40339;SDS011;26044;50.864;20.658;2023-05-10T13:37:34;6.65;;;2.90;;
40339;SDS011;26044;50.864;20.658;2023-05-10T13:40:06;14.57;;;2.78;;
40339;SDS011;26044;50.864;20.658;2023-05-10T13:42:34;9.70;;;3.55;;
40339;SDS011;26044;50.864;20.658;2023-05-10T13:45:05;8.73;;;2.90;;
40339;SDS011;26044;50.864;20.658;2023-05-10T13:47:32;5.05;;;2.33;;
40339;SDS011;26044;50.864;20.658;2023-05-10T13:50:00;4.80;;;2.33;;
40339;SDS011;26044;50.864;20.658;2023-05-10T13:52:27;8.02;;;2.33;;
40339;SDS011;26044;50.864;20.658;2023-05-10T13:54:55;11.05;;;2.55;;
40339;SDS011;26044;50.864;20.658;2023-05-10T14:00:28;7.05;;;2.45;;
40339;SDS011;26044;50.864;20.658;2023-05-10T14:02:57;5.82;;;2.35;;
40339;SDS011;26044;50.864;20.658;2023-05-10T14:05:26;7.30;;;2.38;;
40339;SDS011;26044;50.864;20.658;2023-05-10T14:07:54;4.65;;;2.22;;
40339;SDS011;26044;50.864;20.658;2023-05-10T14:10:21;6.75;;;2.40;;
40339;SDS011;26044;50.864;20.658;2023-05-10T14:12:49;8.45;;;2.60;;
40339;SDS011;26044;50.864;20.658;2023-05-10T14:15:17;8.00;;;2.45;;
40339;SDS011;26044;50.864;20.658;2023-05-10T14:17:44;5.63;;;2.30;;
40339;SDS011;26044;50.864;20.658;2023-05-10T14:20:12;9.50;;;2.67;;
40339;SDS011;26044;50.864;20.658;2023-05-10T14:22:39;9.32;;;2.75;;
40339;SDS011;26044;50.864;20.658;2023-05-10T14:25:07;10.45;;;2.95;;
40339;SDS011;26044;50.864;20.658;2023-05-10T14:27:34;5.53;;;2.40;;
40339;SDS011;26044;50.864;20.658;2023-05-10T14:30:02;8.48;;;3.13;;
40339;SDS011;26044;50.864;20.658;2023-05-10T14:32:29;7.30;;;2.47;;
40339;SDS011;26044;50.864;20.658;2023-05-10T14:34:59;2.65;;;1.92;;
40339;SDS011;26044;50.864;20.658;2023-05-10T14:37:26;9.90;;;2.63;;
40339;SDS011;26044;50.864;20.658;2023-05-10T14:39:55;10.77;;;3.03;;
40339;SDS011;26044;50.864;20.658;2023-05-10T14:42:30;8.68;;;2.47;;
40339;SDS011;26044;50.864;20.658;2023-05-10T14:45:00;6.50;;;2.15;;
40339;SDS011;26044;50.864;20.658;2023-05-10T14:47:32;7.35;;;2.50;;
40339;SDS011;26044;50.864;20.658;2023-05-10T14:50:01;6.28;;;2.45;;
40339;SDS011;26044;50.864;20.658;2023-05-10T14:55:34;6.05;;;2.35;;
40339;SDS011;26044;50.864;20.658;2023-05-10T14:58:03;7.35;;;2.10;;
40339;SDS011;26044;50.864;20.658;2023-05-10T15:00:32;4.78;;;2.15;;
40339;SDS011;26044;50.864;20.658;2023-05-10T15:03:03;8.87;;;2.40;;
40339;SDS011;26044;50.864;20.658;2023-05-10T15:05:31;4.13;;;2.15;;
40339;SDS011;26044;50.864;20.658;2023-05-10T15:08:05;6.07;;;1.90;;
40339;SDS011;26044;50.864;20.658;2023-05-10T15:10:33;11.02;;;2.50;;
40339;SDS011;26044;50.864;20.658;2023-05-10T15:13:00;4.60;;;2.10;;
40339;SDS011;26044;50.864;20.658;2023-05-10T15:15:30;8.15;;;2.50;;
40339;SDS011;26044;50.864;20.658;2023-05-10T15:17:57;10.13;;;2.25;;